Time;durP1;ratioP1;P1;durP2;ratioP2;P2;SDS_P1;SDS_P2;PMS_P1;PMS_P2;Temp;Humidity;BMP_temperature;BMP_pressure;BME280_temperature;BME280_humidity;BME280_pressure;Samples;Min_cycle;Max_cycle;Signal;HPM_P1;HPM_P2
2021/08/13 00:01:07;;;;;;;12.15;9.90;;;;;;;20.60;68.61;99226.47;2621191;54;20038;-70
2021/08/13 00:03:38;;;;;;;12.52;9.88;;;;;;;20.51;69.41;99238.72;2621899;47;20123;-69
2021/08/13 00:06:08;;;;;;;14.52;10.15;;;;;;;20.48;69.30;99247.22;2622643;54;20034;-69
2021/08/13 00:08:38;;;;;;;12.13;10.10;;;;;;;20.52;69.75;99226.91;2623060;54;20038;-68
2021/08/13 00:11:07;;;;;;;12.60;11.02;;;;;;;20.54;69.19;99219.44;2623188;54;20042;-69
2021/08/13 00:13:37;;;;;;;12.07;10.07;;;;;;;20.45;69.72;99226.22;2623986;54;20026;-70
2021/08/13 00:16:07;;;;;;;13.30;9.38;;;;;;;20.47;69.42;99219.56;2623784;54;20074;-69
2021/08/13 00:18:36;;;;;;;12.20;11.00;;;;;;;20.53;68.98;99220.47;2624120;39;20404;-69
2021/08/13 00:21:10;;;;;;;13.23;11.00;;;;;;;20.57;68.72;99224.28;2622918;54;20114;-69
2021/08/13 00:23:40;;;;;;;13.63;11.73;;;;;;;20.52;68.31;99222.34;2623555;54;20035;-68
2021/08/13 00:26:09;;;;;;;11.55;10.10;;;;;;;20.37;68.79;99226.66;2624361;47;20026;-69
2021/08/13 00:28:39;;;;;;;12.43;10.20;;;;;;;20.28;68.69;99221.69;2624075;54;20043;-69
2021/08/13 00:31:11;;;;;;;11.17;9.90;;;;;;;20.22;69.04;99229.94;2624392;54;20034;-69
2021/08/13 00:33:41;;;;;;;11.85;10.23;;;;;;;20.23;69.25;99243.09;2621966;54;20038;-69
2021/08/13 00:36:13;;;;;;;14.77;10.48;;;;;;;20.27;69.29;99241.56;2624111;54;20126;-71
2021/08/13 00:38:45;;;;;;;12.45;9.95;;;;;;;20.38;69.13;99236.34;2623014;47;20030;-70
2021/08/13 00:41:16;;;;;;;11.75;10.65;;;;;;;20.46;68.58;99235.94;2623052;47;20082;-69
2021/08/13 00:43:47;;;;;;;12.50;10.57;;;;;;;20.40;68.26;99237.72;2623398;54;20074;-69
2021/08/13 00:46:19;;;;;;;13.07;11.00;;;;;;;20.35;68.66;99232.28;2622785;54;20126;-70
2021/08/13 00:49:07;;;;;;;12.45;10.88;;;;;;;20.23;68.76;99234.22;2621561;54;20107;-70
2021/08/13 00:51:46;;;;;;;11.52;10.30;;;;;;;20.08;69.10;99226.75;2619887;47;20023;-69
2021/08/13 00:54:16;;;;;;;12.13;9.65;;;;;;;20.11;69.54;99237.00;2622296;54;20030;-70
2021/08/13 00:56:51;;;;;;;12.45;10.73;;;;;;;20.19;69.60;99239.28;2623307;47;20082;-70
2021/08/13 00:59:41;;;;;;;14.70;10.88;;;;;;;20.23;69.00;99243.09;2621496;47;20061;-70
2021/08/13 01:02:27;;;;;;;12.05;10.45;;;;;;;20.22;69.36;99229.94;2621406;54;20062;-71
2021/08/13 01:05:08;;;;;;;13.90;11.05;;;;;;;20.27;69.04;99233.50;2623966;54;20031;-71
2021/08/13 01:07:39;;;;;;;11.95;10.52;;;;;;;20.24;69.20;99227.81;2622398;47;20098;-69
2021/08/13 01:10:11;;;;;;;12.25;10.52;;;;;;;20.19;69.26;99208.94;2623020;39;20438;-68
2021/08/13 01:12:59;;;;;;;13.40;10.30;;;;;;;20.12;69.59;99214.47;2622480;39;20458;-68
2021/08/13 01:15:34;;;;;;;12.07;10.07;;;;;;;20.06;69.49;99220.00;2622449;47;20034;-70
2021/08/13 01:18:14;;;;;;;15.60;11.35;;;;;;;20.01;69.85;99210.81;2622228;46;20077;-69
2021/08/13 01:21:16;;;;;;;12.32;11.00;;;;;;;19.96;70.25;99208.06;2622610;47;20022;-69
2021/08/13 01:23:56;;;;;;;11.27;9.30;;;;;;;19.98;70.13;99197.88;2623017;54;20034;-68
2021/08/13 01:26:32;;;;;;;11.30;9.27;;;;;;;20.03;70.13;99202.53;2622276;54;20026;-69
2021/08/13 01:29:16;;;;;;;17.35;10.45;;;;;;;20.15;70.49;99207.81;2624537;54;20030;-69
2021/08/13 01:31:55;;;;;;;14.13;10.52;;;;;;;20.28;70.05;99215.50;2623980;54;20034;-69
2021/08/13 01:34:27;;;;;;;12.38;10.82;;;;;;;20.28;69.36;99213.63;2623955;54;20027;-69
2021/08/13 01:37:00;;;;;;;13.85;10.48;;;;;;;20.29;69.62;99204.53;2622526;50;20580;-69
2021/08/13 01:39:34;;;;;;;12.20;10.77;;;;;;;20.38;69.20;99199.56;2623650;54;20030;-70
2021/08/13 01:42:05;;;;;;;12.73;10.98;;;;;;;20.41;69.21;99204.44;2620342;47;20027;-70
2021/08/13 01:44:36;;;;;;;13.52;10.20;;;;;;;20.50;68.88;99220.97;2621149;51;20027;-69
2021/08/13 01:47:06;;;;;;;14.13;9.65;;;;;;;20.60;68.96;99239.91;2620193;54;20045;-69
2021/08/13 01:49:38;;;;;;;11.40;9.52;;;;;;;20.55;68.63;99263.22;2621746;54;20535;-70
2021/08/13 01:52:09;;;;;;;13.95;10.40;;;;;;;20.41;68.54;99292.22;2622775;54;20055;-70
2021/08/13 01:54:40;;;;;;;11.43;9.70;;;;;;;20.31;70.25;99313.56;2623356;54;20041;-70
2021/08/13 01:57:11;;;;;;;11.02;9.75;;;;;;;20.44;70.96;99260.31;2623116;54;20030;-71
2021/08/13 01:59:42;;;;;;;11.00;9.30;;;;;;;20.53;70.52;99274.19;2623774;54;20131;-71
2021/08/13 02:02:12;;;;;;;11.10;8.43;;;;;;;20.77;69.69;99289.03;2624300;39;20495;-71
2021/08/13 02:04:46;;;;;;;11.15;9.60;;;;;;;20.90;69.42;99287.91;2623108;51;20038;-72
2021/08/13 02:07:17;;;;;;;14.68;11.05;;;;;;;20.89;69.48;99288.94;2623524;54;20062;-71
2021/08/13 02:09:48;;;;;;;13.45;10.40;;;;;;;20.80;69.59;99277.00;2622125;54;20044;-71
2021/08/13 02:12:18;;;;;;;11.70;9.85;;;;;;;20.78;69.74;99273.75;2622177;54;20610;-71
2021/08/13 02:14:49;;;;;;;12.40;9.73;;;;;;;20.80;69.67;99266.25;2623320;54;20038;-71
2021/08/13 02:17:22;;;;;;;9.57;8.30;;;;;;;20.89;70.13;99253.19;2623019;47;20049;-71
2021/08/13 02:19:58;;;;;;;10.82;9.45;;;;;;;21.14;69.24;99268.81;2622480;54;20018;-70
2021/08/13 02:22:29;;;;;;;11.20;9.77;;;;;;;21.25;68.88;99279.47;2622068;47;20589;-71
2021/08/13 02:25:02;;;;;;;12.23;9.98;;;;;;;21.17;68.75;99268.34;2622722;54;20036;-71
2021/08/13 02:27:32;;;;;;;11.82;9.98;;;;;;;21.11;69.55;99272.84;2621379;46;20606;-71
2021/08/13 02:30:02;;;;;;;12.07;9.07;;;;;;;21.10;69.50;99275.75;2621939;54;20064;-71
2021/08/13 02:32:35;;;;;;;13.75;10.30;;;;;;;21.06;69.30;99264.69;2622640;54;20121;-72
2021/08/13 02:35:12;;;;;;;10.15;9.13;;;;;;;20.92;69.90;99258.88;2623491;54;20022;-71
2021/08/13 02:37:47;;;;;;;12.75;10.75;;;;;;;20.86;70.15;99259.06;2623369;54;20027;-70
2021/08/13 02:40:20;;;;;;;11.85;10.43;;;;;;;20.72;70.65;99270.16;2623694;54;20092;-70
2021/08/13 02:42:59;;;;;;;12.65;10.27;;;;;;;20.76;71.51;99283.94;2622311;51;20099;-71
2021/08/13 02:45:34;;;;;;;13.23;9.75;;;;;;;20.85;71.48;99292.38;2621902;54;20023;-71
2021/08/13 02:48:07;;;;;;;11.15;9.73;;;;;;;20.97;70.88;99301.94;2621237;54;20086;-71
2021/08/13 02:50:47;;;;;;;12.52;10.82;;;;;;;21.07;69.80;99287.84;2623349;54;20026;-71
2021/08/13 02:53:21;;;;;;;17.13;10.07;;;;;;;21.02;69.57;99261.72;2624126;54;20038;-72
2021/08/13 02:55:58;;;;;;;16.55;11.32;;;;;;;21.25;69.41;99263.31;2625389;54;20065;-74
2021/08/13 02:58:34;;;;;;;23.63;14.52;;;;;;;21.36;69.82;99244.66;2622079;54;20082;-71
2021/08/13 03:01:05;;;;;;;16.77;10.95;;;;;;;20.93;70.43;99260.50;2620458;47;20622;-72
2021/08/13 03:03:36;;;;;;;16.42;10.75;;;;;;;20.78;71.77;99290.69;2622662;47;20038;-72
2021/08/13 03:06:08;;;;;;;19.02;13.75;;;;;;;20.74;71.80;99262.69;2619933;47;20039;-71
2021/08/13 03:08:39;;;;;;;13.43;11.05;;;;;;;20.60;72.64;99265.97;2619232;51;20026;-72
2021/08/13 03:11:12;;;;;;;15.60;11.40;;;;;;;20.60;72.98;99263.28;2620031;47;20030;-72
2021/08/13 03:13:44;;;;;;;15.10;11.43;;;;;;;20.54;73.48;99267.78;2621571;54;20075;-71
2021/08/13 03:16:14;;;;;;;14.55;10.85;;;;;;;20.58;73.25;99258.16;2621870;39;20471;-72
2021/08/13 03:18:51;;;;;;;18.48;12.70;;;;;;;20.60;73.69;99265.97;2621252;51;20038;-70
2021/08/13 03:21:22;;;;;;;16.02;11.07;;;;;;;20.61;73.23;99279.13;2623236;39;20529;-72
2021/08/13 03:23:55;;;;;;;17.30;12.02;;;;;;;20.64;73.79;99277.84;2623064;54;20033;-72
2021/08/13 03:26:27;;;;;;;17.70;12.05;;;;;;;20.53;73.79;99280.38;2622937;54;20026;-72
2021/08/13 03:28:57;;;;;;;15.60;12.77;;;;;;;20.41;74.84;99270.75;2619322;47;20559;-71
2021/08/13 03:31:33;;;;;;;17.98;11.55;;;;;;;20.33;75.63;99285.41;2619063;47;20026;-71
2021/08/13 03:34:06;;;;;;;17.77;12.70;;;;;;;20.40;75.82;99275.31;2619353;39;20423;-71
2021/08/13 03:36:38;;;;;;;17.00;12.57;;;;;;;20.36;75.51;99273.34;2619143;54;20034;-71
2021/08/13 03:39:11;;;;;;;15.30;12.10;;;;;;;20.26;75.34;99280.19;2619921;39;20117;-71
2021/08/13 03:41:42;;;;;;;15.20;12.13;;;;;;;20.22;75.85;99284.44;2620139;54;20034;-71
2021/08/13 03:44:16;;;;;;;14.57;12.98;;;;;;;20.20;76.04;99291.09;2620101;54;20114;-71
2021/08/13 03:46:48;;;;;;;15.07;12.77;;;;;;;20.05;76.41;99286.28;2620292;47;20022;-71
2021/08/13 03:49:18;;;;;;;15.93;11.73;;;;;;;19.76;77.73;99288.19;2625359;54;20042;-71
2021/08/13 03:51:49;;;;;;;33.95;29.60;;;;;;;19.78;77.73;99281.53;2625007;54;20031;-71
2021/08/13 03:54:19;;;;;;;20.17;16.42;;;;;;;19.82;77.39;99278.38;2624461;54;20094;-71
2021/08/13 03:56:49;;;;;;;14.10;11.85;;;;;;;19.73;77.62;99277.94;2624703;46;20617;-72
2021/08/13 03:59:18;;;;;;;13.48;11.32;;;;;;;19.86;78.75;99283.00;2624812;54;20035;-71
2021/08/13 04:01:48;;;;;;;20.80;13.93;;;;;;;20.03;77.49;99289.19;2625240;54;20031;-71
2021/08/13 04:04:18;;;;;;;16.02;12.43;;;;;;;20.13;77.52;99285.09;2624845;51;20534;-72
2021/08/13 04:06:50;;;;;;;16.40;12.00;;;;;;;20.25;76.92;99278.56;2624557;47;20041;-71
2021/08/13 04:09:19;;;;;;;14.27;11.52;;;;;;;20.38;76.41;99282.81;2624361;46;20035;-72
2021/08/13 04:11:49;;;;;;;17.67;12.38;;;;;;;20.46;76.11;99281.59;2624100;54;20046;-72
2021/08/13 04:14:20;;;;;;;15.82;12.55;;;;;;;20.48;76.44;99276.75;2623841;54;20035;-71
2021/08/13 04:16:50;;;;;;;17.40;12.10;;;;;;;20.51;75.62;99273.63;2624507;54;20034;-71
2021/08/13 04:19:20;;;;;;;16.95;14.35;;;;;;;20.15;76.78;99262.28;2624943;47;20046;-71
2021/08/13 04:21:51;;;;;;;16.98;14.50;;;;;;;20.03;77.32;99274.97;2625432;54;20584;-71
2021/08/13 04:24:21;;;;;;;16.45;13.57;;;;;;;19.90;77.66;99270.72;2624784;54;20042;-71
2021/08/13 04:26:51;;;;;;;15.77;13.48;;;;;;;19.88;77.86;99269.34;2624461;54;20053;-71
2021/08/13 04:29:21;;;;;;;15.85;13.88;;;;;;;19.94;77.77;99271.06;2624531;54;20542;-71
2021/08/13 04:31:50;;;;;;;15.95;11.65;;;;;;;19.93;78.61;99270.25;2624655;54;20070;-70
2021/08/13 04:34:21;;;;;;;15.40;12.95;;;;;;;20.00;77.64;99272.75;2623851;54;20038;-71
2021/08/13 04:36:52;;;;;;;18.17;14.50;;;;;;;20.03;78.00;99262.38;2624619;54;20040;-71
2021/08/13 04:39:22;;;;;;;20.27;13.85;;;;;;;20.01;78.12;99264.50;2624901;54;20039;-71
2021/08/13 04:41:52;;;;;;;15.70;12.80;;;;;;;19.99;77.92;99263.09;2625011;54;20031;-71
2021/08/13 04:44:22;;;;;;;18.75;13.93;;;;;;;20.01;77.88;99263.69;2625423;54;20153;-71
2021/08/13 04:46:52;;;;;;;18.48;15.73;;;;;;;20.02;77.43;99259.94;2625431;54;20046;-72
2021/08/13 04:49:21;;;;;;;17.02;14.57;;;;;;;19.93;78.39;99253.34;2625073;54;20033;-72
2021/08/13 04:51:52;;;;;;;14.57;11.85;;;;;;;19.87;78.53;99251.63;2624325;49;20034;-71
2021/08/13 04:54:22;;;;;;;18.25;14.45;;;;;;;19.86;78.70;99264.22;2624965;47;20034;-71
2021/08/13 04:56:52;;;;;;;15.75;12.85;;;;;;;19.75;78.55;99263.22;2624837;47;20030;-72
2021/08/13 04:59:22;;;;;;;16.50;12.88;;;;;;;19.76;78.88;99259.50;2625598;54;20034;-71
2021/08/13 05:02:00;;;;;;;16.60;13.15;;;;;;;19.83;78.83;99261.22;2625032;54;20050;-71
2021/08/13 05:04:30;;;;;;;17.05;13.27;;;;;;;19.89;78.83;99263.75;2624530;51;20053;-72
2021/08/13 05:07:02;;;;;;;16.25;12.85;;;;;;;19.98;78.79;99264.16;2624736;54;20038;-72
2021/08/13 05:09:35;;;;;;;13.25;11.85;;;;;;;20.02;78.83;99270.66;2624944;39;20416;-72
2021/08/13 05:12:05;;;;;;;15.55;12.10;;;;;;;20.08;78.33;99271.56;2625445;54;20047;-71
2021/08/13 05:14:35;;;;;;;14.98;12.43;;;;;;;20.14;78.47;99279.47;2624625;54;20031;-72
2021/08/13 05:17:06;;;;;;;19.67;13.48;;;;;;;20.24;77.99;99273.44;2624188;54;20037;-72
2021/08/13 05:19:35;;;;;;;19.52;13.05;;;;;;;20.33;77.35;99269.31;2624950;54;20042;-71
2021/08/13 05:22:06;;;;;;;18.05;12.93;;;;;;;20.41;77.55;99268.91;2624583;54;20026;-72
2021/08/13 05:24:36;;;;;;;17.33;12.85;;;;;;;20.48;76.89;99268.72;2624518;47;20046;-71
2021/08/13 05:27:06;;;;;;;15.20;12.73;;;;;;;20.57;76.68;99277.19;2623890;47;20026;-71
2021/08/13 05:29:36;;;;;;;16.83;13.07;;;;;;;20.66;76.35;99283.78;2624542;47;20130;-72
2021/08/13 05:32:07;;;;;;;16.02;12.30;;;;;;;20.55;76.14;99288.19;2623788;47;20057;-72
2021/08/13 05:34:37;;;;;;;16.83;11.80;;;;;;;20.45;76.56;99283.47;2624975;54;20044;-72
2021/08/13 05:37:08;;;;;;;15.48;12.65;;;;;;;20.50;76.94;99277.38;2624343;54;20025;-71
2021/08/13 05:39:42;;;;;;;15.02;11.57;;;;;;;20.51;77.04;99284.38;2623888;47;20039;-71
2021/08/13 05:42:12;;;;;;;16.25;12.77;;;;;;;20.50;76.44;99296.19;2624608;46;20041;-71
2021/08/13 05:44:44;;;;;;;16.45;13.40;;;;;;;20.47;77.33;99312.75;2624748;54;20041;-71
2021/08/13 05:47:14;;;;;;;16.60;12.57;;;;;;;20.52;76.92;99302.91;2624221;47;20049;-72
2021/08/13 05:49:43;;;;;;;14.65;13.10;;;;;;;20.51;77.00;99314.72;2622300;54;20106;-67
2021/08/13 05:52:15;;;;;;;20.42;13.48;;;;;;;20.60;76.90;99312.44;2619492;54;20052;-68
2021/08/13 05:54:45;;;;;;;15.07;12.48;;;;;;;20.63;76.82;99316.50;2618401;47;20070;-67
2021/08/13 05:57:17;;;;;;;17.55;13.45;;;;;;;20.73;76.49;99322.81;2618167;47;20122;-67
2021/08/13 05:59:47;;;;;;;16.13;12.18;;;;;;;20.74;76.17;99329.84;2618799;54;20069;-68
2021/08/13 06:02:21;;;;;;;15.20;12.90;;;;;;;20.78;76.73;99331.00;2619219;54;20038;-67
2021/08/13 06:04:51;;;;;;;15.90;13.23;;;;;;;20.81;75.98;99329.66;2618715;54;20035;-66
2021/08/13 06:07:22;;;;;;;15.07;12.63;;;;;;;20.82;76.45;99327.78;2618003;39;20451;-66
2021/08/13 06:09:52;;;;;;;15.35;12.38;;;;;;;20.84;76.25;99329.19;2618054;47;20139;-68
2021/08/13 06:12:24;;;;;;;14.65;11.98;;;;;;;20.88;75.81;99322.25;2618686;54;20130;-68
2021/08/13 06:14:54;;;;;;;15.40;12.48;;;;;;;20.99;75.92;99329.41;2617976;54;20030;-67
2021/08/13 06:17:24;;;;;;;15.98;13.30;;;;;;;21.09;75.47;99331.41;2617700;54;20030;-67
2021/08/13 06:19:53;;;;;;;15.52;13.30;;;;;;;21.24;75.77;99333.50;2617983;47;20038;-67
2021/08/13 06:22:24;;;;;;;17.17;12.73;;;;;;;21.28;75.15;99337.31;2618137;54;20085;-67
2021/08/13 06:24:54;;;;;;;13.32;11.88;;;;;;;21.22;75.11;99339.09;2618873;54;20029;-68
2021/08/13 06:27:24;;;;;;;15.05;13.13;;;;;;;21.22;74.86;99336.41;2618113;54;20022;-67
2021/08/13 06:29:54;;;;;;;14.07;12.68;;;;;;;21.27;74.71;99333.81;2617800;54;20050;-67
2021/08/13 06:32:24;;;;;;;14.98;12.77;;;;;;;21.34;74.47;99340.91;2618414;54;20081;-66
2021/08/13 06:34:54;;;;;;;13.40;12.00;;;;;;;21.39;74.28;99347.16;2617970;54;20054;-67
2021/08/13 06:37:27;;;;;;;16.67;12.77;;;;;;;21.47;73.83;99348.59;2617271;54;20030;-67
2021/08/13 06:39:56;;;;;;;16.90;12.82;;;;;;;21.61;74.23;99341.78;2619297;31;20527;-65
2021/08/13 06:42:26;;;;;;;15.55;13.10;;;;;;;21.74;73.46;99343.25;2618013;47;20037;-66
2021/08/13 06:45:11;;;;;;;16.83;13.75;;;;;;;21.94;73.28;99338.09;2617789;47;20035;-66
2021/08/13 06:47:40;;;;;;;15.18;13.15;;;;;;;21.99;72.54;99345.41;2618136;39;20462;-67
2021/08/13 06:50:11;;;;;;;19.75;13.52;;;;;;;21.94;72.79;99346.16;2617628;54;20038;-66
2021/08/13 06:52:47;;;;;;;16.88;14.13;;;;;;;21.95;72.74;99350.47;2617747;54;20026;-66
2021/08/13 06:55:18;;;;;;;18.10;14.27;;;;;;;22.01;72.38;99344.09;2617790;47;20045;-66
2021/08/13 06:57:53;;;;;;;16.85;11.77;;;;;;;22.19;73.18;99356.41;2617438;47;20629;-66
2021/08/13 07:00:24;;;;;;;16.77;14.07;;;;;;;22.38;72.14;99346.06;2617956;47;20106;-66
2021/08/13 07:02:54;;;;;;;16.52;12.98;;;;;;;22.56;71.93;99361.03;2617832;47;20548;-65
2021/08/13 07:05:25;;;;;;;11.57;9.27;;;;;;;22.77;69.93;99359.28;2618748;54;20569;-65
2021/08/13 07:07:55;;;;;;;10.13;9.13;;;;;;;23.07;67.75;99356.03;2617404;51;20041;-65
2021/08/13 07:10:25;;;;;;;12.75;8.80;;;;;;;23.22;67.89;99357.97;2617911;54;20029;-65
2021/08/13 07:12:56;;;;;;;12.43;8.77;;;;;;;23.18;68.11;99357.69;2618099;54;20019;-66
2021/08/13 07:15:26;;;;;;;12.68;9.70;;;;;;;23.27;68.56;99352.63;2618076;54;20029;-66
2021/08/13 07:17:57;;;;;;;11.35;9.02;;;;;;;23.35;68.29;99348.59;2617448;54;20546;-65
2021/08/13 07:20:26;;;;;;;12.55;8.30;;;;;;;23.40;67.67;99354.03;2618722;54;20046;-65
2021/08/13 07:22:58;;;;;;;10.85;8.27;;;;;;;23.45;68.21;99352.16;2617977;54;20133;-65
2021/08/13 07:25:27;;;;;;;9.88;7.80;;;;;;;23.44;67.73;99353.25;2618084;54;20046;-65
2021/08/13 07:27:57;;;;;;;10.85;8.07;;;;;;;23.46;67.73;99361.06;2618329;54;20072;-65
2021/08/13 07:30:28;;;;;;;10.52;7.88;;;;;;;23.50;67.62;99362.16;2618821;39;20415;-65
2021/08/13 07:32:57;;;;;;;10.40;7.60;;;;;;;23.52;67.43;99373.53;2618838;54;20045;-66
2021/08/13 07:35:27;;;;;;;10.40;8.15;;;;;;;23.59;67.53;99384.88;2619038;39;20437;-66
2021/08/13 07:37:58;;;;;;;11.18;7.75;;;;;;;23.51;67.92;99389.97;2618715;54;20034;-66
2021/08/13 07:40:28;;;;;;;9.75;7.75;;;;;;;23.53;68.09;99385.13;2618127;54;20026;-67
2021/08/13 07:42:58;;;;;;;8.82;7.78;;;;;;;23.62;67.31;99373.56;2617979;51;20038;-65
2021/08/13 07:45:28;;;;;;;9.63;7.40;;;;;;;23.73;66.84;99377.13;2617931;54;20541;-65
2021/08/13 07:47:58;;;;;;;11.35;7.95;;;;;;;23.81;66.39;99379.31;2617698;47;20023;-65
2021/08/13 07:50:28;;;;;;;10.75;6.93;;;;;;;23.71;67.45;99379.28;2618160;54;20046;-65
2021/08/13 07:53:02;;;;;;;10.07;7.50;;;;;;;23.71;67.16;99381.97;2617718;54;20030;-65
2021/08/13 07:55:32;;;;;;;9.93;7.57;;;;;;;23.84;67.16;99383.38;2617793;54;20022;-65
2021/08/13 07:58:03;;;;;;;8.10;6.68;;;;;;;23.89;66.59;99391.50;2617248;54;20038;-66
2021/08/13 08:00:33;;;;;;;10.02;7.07;;;;;;;23.93;66.19;99389.91;2617597;54;20629;-66
2021/08/13 08:03:03;;;;;;;7.70;5.97;;;;;;;23.95;66.19;99390.41;2618785;39;20435;-66
2021/08/13 08:05:33;;;;;;;8.27;6.18;;;;;;;24.03;66.24;99392.59;2618418;54;20041;-66
2021/08/13 08:08:04;;;;;;;12.60;7.10;;;;;;;24.09;66.04;99399.66;2618048;54;20042;-66
2021/08/13 08:10:34;;;;;;;10.63;7.05;;;;;;;24.17;65.73;99391.03;2618600;54;20041;-67
2021/08/13 08:13:03;;;;;;;11.98;6.07;;;;;;;24.33;65.67;99396.44;2618359;54;20122;-65
2021/08/13 08:15:33;;;;;;;9.80;6.50;;;;;;;24.47;65.24;99397.56;2618524;54;20042;-65
2021/08/13 08:18:03;;;;;;;9.35;6.72;;;;;;;24.65;65.54;99388.09;2618570;47;20030;-66
2021/08/13 08:20:32;;;;;;;12.68;6.45;;;;;;;24.80;64.61;99390.00;2618406;54;20042;-65
2021/08/13 08:23:03;;;;;;;10.02;6.18;;;;;;;24.89;64.09;99396.47;2618536;54;20038;-66
2021/08/13 08:25:33;;;;;;;8.25;5.72;;;;;;;24.89;63.63;99393.78;2618804;54;20604;-66
2021/08/13 08:28:02;;;;;;;10.57;6.18;;;;;;;24.94;63.74;99396.47;2619085;54;20054;-66
2021/08/13 08:30:32;;;;;;;10.90;6.20;;;;;;;25.02;63.91;99390.50;2619713;54;20038;-66
2021/08/13 08:33:02;;;;;;;11.60;6.10;;;;;;;25.05;63.72;99392.66;2619949;54;20630;-66
2021/08/13 08:35:31;;;;;;;11.90;6.80;;;;;;;25.14;63.64;99396.47;2620445;54;20050;-65
2021/08/13 08:38:03;;;;;;;8.18;6.60;;;;;;;25.15;63.41;99398.09;2620920;54;20595;-65
2021/08/13 08:40:35;;;;;;;10.45;6.53;;;;;;;25.18;63.04;99399.44;2620767;54;20149;-64
2021/08/13 08:43:07;;;;;;;9.48;6.72;;;;;;;25.29;62.55;99397.53;2620657;47;20121;-66
2021/08/13 08:45:38;;;;;;;11.13;6.60;;;;;;;25.30;62.91;99396.44;2620908;54;20041;-64
2021/08/13 08:48:10;;;;;;;9.55;6.55;;;;;;;25.43;62.93;99401.25;2621938;39;20414;-64
2021/08/13 08:50:42;;;;;;;7.93;6.03;;;;;;;25.54;61.86;99396.63;2622225;54;20042;-65
2021/08/13 08:53:23;;;;;;;12.40;7.68;;;;;;;25.60;61.95;99387.41;2622147;54;20046;-66
2021/08/13 08:55:54;;;;;;;11.23;5.75;;;;;;;25.69;61.63;99397.38;2621612;54;20046;-66
2021/08/13 08:58:25;;;;;;;12.77;6.47;;;;;;;25.69;61.63;99396.56;2621317;54;20061;-65
2021/08/13 09:00:54;;;;;;;10.13;7.03;;;;;;;25.73;61.06;99396.84;2622250;31;20474;-64
2021/08/13 09:03:25;;;;;;;8.80;6.15;;;;;;;25.80;60.97;99400.06;2622023;31;20512;-66
2021/08/13 09:05:55;;;;;;;9.50;6.47;;;;;;;25.90;60.69;99397.31;2621201;54;20041;-64
2021/08/13 09:08:26;;;;;;;8.82;5.70;;;;;;;25.98;60.57;99407.56;2620866;54;20035;-65
2021/08/13 09:10:56;;;;;;;10.38;6.38;;;;;;;26.02;60.00;99407.81;2620703;54;20046;-66
2021/08/13 09:13:26;;;;;;;9.45;5.90;;;;;;;26.10;59.81;99407.22;2620806;54;20558;-65
2021/08/13 09:15:56;;;;;;;7.80;6.32;;;;;;;26.14;59.74;99409.09;2620774;54;20053;-65
2021/08/13 09:18:27;;;;;;;9.23;6.38;;;;;;;26.27;59.97;99406.84;2620591;54;20030;-65
2021/08/13 09:20:58;;;;;;;7.95;6.22;;;;;;;26.25;59.60;99415.28;2620611;39;20551;-65
2021/08/13 09:23:36;;;;;;;7.72;5.40;;;;;;;26.31;59.28;99405.19;2620143;54;20053;-66
2021/08/13 09:26:08;;;;;;;11.68;6.25;;;;;;;26.38;59.40;99414.63;2620567;54;20038;-65
2021/08/13 09:28:58;;;;;;;10.30;6.13;;;;;;;26.39;59.42;99412.75;2620219;54;20033;-65
2021/08/13 09:31:52;;;;;;;7.78;5.93;;;;;;;26.42;59.32;99413.00;2619457;51;20023;-65
2021/08/13 09:34:33;;;;;;;8.88;6.45;;;;;;;26.49;58.91;99407.25;2619221;47;20078;-65
2021/08/13 09:37:03;;;;;;;9.30;5.97;;;;;;;26.54;59.04;99415.38;2619533;54;20593;-65
2021/08/13 09:39:35;;;;;;;9.45;5.15;;;;;;;26.60;59.52;99414.22;2620713;39;20703;-66
2021/08/13 09:42:10;;;;;;;10.13;5.90;;;;;;;26.74;58.94;99411.69;2620024;54;20063;-64
2021/08/13 09:44:41;;;;;;;13.65;6.03;;;;;;;26.82;58.71;99408.38;2620864;39;20396;-65
2021/08/13 09:47:13;;;;;;;8.85;7.10;;;;;;;26.90;58.14;99402.31;2619931;54;20046;-65
2021/08/13 09:49:44;;;;;;;12.07;6.70;;;;;;;27.00;58.22;99403.31;2620067;51;20035;-65
2021/08/13 09:52:16;;;;;;;10.98;6.15;;;;;;;27.07;58.27;99407.31;2620294;54;20291;-65
2021/08/13 09:54:51;;;;;;;9.38;7.28;;;;;;;27.20;58.17;99413.19;2620108;47;20030;-64
2021/08/13 09:57:20;;;;;;;11.90;6.82;;;;;;;27.25;58.50;99413.13;2622797;54;20029;-66
2021/08/13 10:00:04;;;;;;;7.68;6.10;;;;;;;27.19;57.68;99404.25;2623011;54;20031;-65
2021/08/13 10:02:44;;;;;;;;;;;;;;;27.11;57.75;99402.16;2619757;54;20030;-66
2021/08/13 10:05:20;;;;;;;8.73;5.95;;;;;;;27.21;57.28;99399.31;2619186;47;19946;-65
2021/08/13 10:07:52;;;;;;;11.95;6.65;;;;;;;27.40;56.67;99397.50;2619866;47;20038;-65
2021/08/13 10:10:30;;;;;;;7.90;5.97;;;;;;;27.52;55.95;99404.44;2619559;54;20061;-66
2021/08/13 10:13:04;;;;;;;12.90;6.65;;;;;;;27.44;55.57;99403.16;2619154;54;20122;-66
2021/08/13 10:15:36;;;;;;;10.15;5.90;;;;;;;27.36;56.02;99399.16;2619133;47;20026;-65
2021/08/13 10:18:13;;;;;;;8.57;5.95;;;;;;;27.33;56.66;99385.34;2619097;54;20027;-65
2021/08/13 10:20:45;;;;;;;8.93;6.18;;;;;;;27.30;56.79;99385.94;2619030;54;20034;-65
2021/08/13 10:23:16;;;;;;;10.88;6.68;;;;;;;27.34;57.28;99392.41;2619160;54;20526;-65
2021/08/13 10:25:49;;;;;;;6.95;6.18;;;;;;;27.43;56.73;99390.66;2619063;54;20119;-66
2021/08/13 10:28:23;;;;;;;9.60;6.15;;;;;;;27.42;56.76;99386.34;2619413;54;20057;-66
2021/08/13 10:31:01;;;;;;;12.32;6.78;;;;;;;27.53;56.28;99390.56;2619283;54;20030;-66
2021/08/13 10:33:32;;;;;;;7.43;6.20;;;;;;;27.61;55.82;99380.97;2619314;54;20058;-66
2021/08/13 10:36:04;;;;;;;7.00;6.18;;;;;;;27.75;55.66;99386.50;2621666;54;20031;-66
2021/08/13 10:38:35;;;;;;;9.13;6.30;;;;;;;27.89;55.11;99379.28;2621893;54;20026;-65
2021/08/13 10:41:07;;;;;;;6.18;5.40;;;;;;;27.94;54.89;99371.03;2621975;54;20038;-65
2021/08/13 10:43:40;;;;;;;9.48;6.65;;;;;;;27.96;54.88;99373.44;2622692;54;20038;-66
2021/08/13 10:46:16;;;;;;;8.88;6.72;;;;;;;27.97;54.94;99377.81;2622077;54;20041;-65
2021/08/13 10:48:48;;;;;;;10.07;6.97;;;;;;;28.01;54.62;99385.06;2621472;47;20034;-66
2021/08/13 10:51:28;;;;;;;7.63;6.43;;;;;;;27.93;54.39;99391.16;2621235;54;20049;-66
2021/08/13 10:54:08;;;;;;;10.63;5.90;;;;;;;28.04;54.27;99380.94;2622041;47;20049;-66
2021/08/13 10:56:43;;;;;;;8.77;6.90;;;;;;;28.22;54.25;99384.78;2622440;54;20037;-66
2021/08/13 10:59:52;;;;;;;7.57;6.70;;;;;;;28.42;53.75;99387.22;2622215;51;20034;-66
2021/08/13 11:02:23;;;;;;;7.50;6.15;;;;;;;28.47;53.35;99386.31;2622407;54;20166;-66
2021/08/13 11:05:01;;;;;;;8.10;7.10;;;;;;;28.54;53.42;99387.56;2622093;54;20042;-66
2021/08/13 11:07:59;;;;;;;9.98;6.78;;;;;;;28.69;52.93;99396.56;2621489;54;20023;-66
2021/08/13 11:10:57;;;;;;;9.18;6.32;;;;;;;28.69;51.35;99397.38;2619262;54;20027;-65
2021/08/13 11:13:37;;;;;;;8.60;6.93;;;;;;;28.66;51.31;99389.81;2619743;47;20103;-65
2021/08/13 11:16:35;;;;;;;12.00;7.13;;;;;;;28.78;52.14;99382.00;2622288;54;20551;-66
2021/08/13 11:19:11;;;;;;;7.82;6.97;;;;;;;28.94;50.98;99387.13;2622157;54;20034;-65
2021/08/13 11:21:48;;;;;;;9.85;6.45;;;;;;;28.99;50.82;99382.47;2620134;54;20030;-65
2021/08/13 11:24:22;;;;;;;8.43;6.47;;;;;;;29.13;50.68;99377.81;2619068;54;20085;-65
2021/08/13 11:27:11;;;;;;;9.32;6.65;;;;;;;29.30;49.91;99373.69;2618150;54;20027;-65
2021/08/13 11:29:47;;;;;;;7.70;6.55;;;;;;;29.46;49.38;99379.66;2618812;47;20030;-65
2021/08/13 11:32:32;;;;;;;11.50;6.47;;;;;;;29.58;49.30;99377.25;2618992;54;20033;-66
2021/08/13 11:35:04;;;;;;;9.10;7.10;;;;;;;29.64;48.58;99367.88;2618478;47;20031;-65
2021/08/13 11:37:50;;;;;;;12.35;6.63;;;;;;;29.72;47.57;99378.06;2618314;51;20027;-66
2021/08/13 11:40:51;;;;;;;7.22;6.63;;;;;;;29.93;46.97;99372.16;2618595;47;20034;-65
2021/08/13 11:43:27;;;;;;;7.25;6.35;;;;;;;30.12;45.24;99364.63;2618576;47;20030;-64
2021/08/13 11:45:58;;;;;;;8.13;6.18;;;;;;;30.33;44.96;99364.97;2618680;47;20023;-65
2021/08/13 11:48:34;;;;;;;7.65;6.95;;;;;;;30.42;44.07;99360.41;2618079;54;20023;-65
2021/08/13 11:51:10;;;;;;;9.38;7.13;;;;;;;30.48;43.98;99367.31;2619071;54;20042;-66